Time;durP1;ratioP1;P1;durP2;ratioP2;P2;SDS_P1;SDS_P2;PMS_P1;PMS_P2;Temp;Humidity;BMP_temperature;BMP_pressure;BME280_temperature;BME280_humidity;BME280_pressure;Samples;Min_cycle;Max_cycle;Signal;HPM_P1;HPM_P2
2022/06/04 00:00:09;;;;;;;10.57;5.60;;;23.60;78.30;;;;;;5102099;28;20193;-78
2022/06/04 00:02:39;;;;;;;11.27;5.78;;;23.60;78.40;;;;;;5104469;27;20193;-78
2022/06/04 00:05:09;;;;;;;7.80;5.38;;;23.60;78.60;;;;;;5102684;27;20184;-79
2022/06/04 00:07:39;;;;;;;12.05;5.85;;;23.60;78.90;;;;;;5101331;28;20200;-78
2022/06/04 00:15:45;;;;;;;11.57;5.93;;;23.60;79.30;;;;;;5103138;28;20224;-79
2022/06/04 00:18:14;;;;;;;8.65;5.60;;;23.50;79.10;;;;;;5101434;28;20201;-78
2022/06/04 00:20:43;;;;;;;8.10;5.45;;;23.50;79.30;;;;;;5101611;27;20437;-79
2022/06/04 00:23:13;;;;;;;12.18;6.38;;;23.50;79.30;;;;;;5100063;28;20193;-79
2022/06/04 00:25:45;;;;;;;16.50;6.32;;;23.50;79.50;;;;;;5099261;28;20192;-77
2022/06/04 00:28:13;;;;;;;10.05;5.80;;;23.40;79.50;;;;;;5101676;28;20199;-79
2022/06/04 00:30:48;;;;;;;11.35;6.30;;;23.50;79.70;;;;;;5104275;28;20609;-79
2022/06/04 00:33:17;;;;;;;8.02;5.47;;;23.40;79.70;;;;;;5104479;27;20740;-79
2022/06/04 00:35:47;;;;;;;11.00;6.10;;;23.40;79.80;;;;;;5100885;28;20193;-79
2022/06/04 00:38:19;;;;;;;12.23;6.07;;;23.30;79.90;;;;;;5100802;28;20188;-79
2022/06/04 00:40:51;;;;;;;12.60;6.15;;;23.30;80.00;;;;;;5104089;28;20192;-79
2022/06/04 00:43:21;;;;;;;11.55;6.18;;;23.30;80.00;;;;;;5106150;28;20220;-79
2022/06/04 00:46:28;;;;;;;12.23;5.60;;;23.30;80.10;;;;;;5100571;28;20249;-79
2022/06/04 00:48:57;;;;;;;11.63;6.22;;;23.20;80.30;;;;;;5098950;28;20216;-78
2022/06/04 00:51:26;;;;;;;11.60;5.90;;;23.20;80.30;;;;;;5098249;28;20202;-79
2022/06/04 00:53:58;;;;;;;8.18;5.70;;;23.20;80.40;;;;;;5103190;28;20189;-78
2022/06/04 00:56:38;;;;;;;8.70;5.35;;;23.20;80.60;;;;;;5098115;27;20192;-78
2022/06/04 00:59:24;;;;;;;10.80;5.43;;;23.20;80.50;;;;;;5100790;28;20189;-79
2022/06/04 01:02:11;;;;;;;7.38;5.57;;;23.20;80.70;;;;;;5101667;28;20200;-79
2022/06/04 01:05:01;;;;;;;11.65;5.80;;;23.20;80.70;;;;;;5097970;27;20743;-79
2022/06/04 01:07:53;;;;;;;8.48;5.88;;;23.10;80.70;;;;;;5099493;28;20185;-78
2022/06/04 01:10:40;;;;;;;12.05;5.75;;;23.10;80.80;;;;;;5095885;28;20205;-80
2022/06/04 01:13:28;;;;;;;9.85;5.95;;;23.10;80.80;;;;;;5103610;28;20203;-79
2022/06/04 01:16:06;;;;;;;9.50;5.68;;;23.10;81.00;;;;;;5098380;28;20256;-78
2022/06/04 01:18:42;;;;;;;8.30;5.53;;;23.10;81.40;;;;;;5098870;27;20877;-79
2022/06/04 01:21:20;;;;;;;8.85;5.90;;;23.00;81.30;;;;;;5095623;28;20199;-79
2022/06/04 01:24:14;;;;;;;9.20;5.90;;;23.00;81.20;;;;;;5099153;28;20197;-78
2022/06/04 01:27:14;;;;;;;7.80;5.70;;;23.00;81.30;;;;;;5104074;28;20197;-78
2022/06/04 01:29:49;;;;;;;7.90;5.07;;;23.00;81.30;;;;;;5100940;27;20223;-79
2022/06/04 01:32:23;;;;;;;8.95;5.72;;;23.00;81.30;;;;;;5103092;27;20981;-79
2022/06/04 01:34:59;;;;;;;8.00;5.05;;;22.90;81.10;;;;;;5095810;28;20743;-79
2022/06/04 01:37:34;;;;;;;8.65;5.07;;;22.90;81.30;;;;;;5098261;28;20189;-79
2022/06/04 01:42:54;;;;;;;8.75;4.97;;;22.80;81.30;;;;;;5102185;28;20189;-79
2022/06/04 01:45:26;;;;;;;8.77;5.78;;;22.80;81.40;;;;;;5098181;28;20189;-79
2022/06/04 01:47:58;;;;;;;9.45;5.75;;;22.80;81.40;;;;;;5096641;28;20193;-78
2022/06/04 01:50:30;;;;;;;10.07;6.10;;;22.80;81.40;;;;;;5099373;28;20215;-79
2022/06/04 01:53:01;;;;;;;11.60;6.00;;;22.80;81.70;;;;;;5102985;28;20220;-79
2022/06/04 01:55:35;;;;;;;9.38;5.45;;;22.70;81.60;;;;;;5100031;28;20185;-78
2022/06/04 01:58:11;;;;;;;8.02;6.13;;;22.80;81.70;;;;;;5097862;28;20181;-79
2022/06/04 02:00:44;;;;;;;8.15;5.85;;;22.70;81.80;;;;;;5098628;28;20661;-79
2022/06/04 02:03:17;;;;;;;8.25;5.32;;;22.70;81.80;;;;;;5103453;28;20204;-79
2022/06/04 02:05:51;;;;;;;8.38;5.40;;;22.60;81.90;;;;;;5101802;28;20185;-79
2022/06/04 02:08:23;;;;;;;9.85;5.53;;;22.60;82.00;;;;;;5098833;28;20550;-79
2022/06/04 02:10:56;;;;;;;8.07;5.68;;;22.60;82.00;;;;;;5101345;28;20504;-79
2022/06/04 02:13:26;;;;;;;10.80;5.97;;;22.60;82.10;;;;;;5102386;28;20185;-80
2022/06/04 02:16:01;;;;;;;9.88;5.72;;;22.60;82.30;;;;;;5112782;27;20220;-77
2022/06/04 02:18:29;;;;;;;7.60;5.40;;;22.60;82.50;;;;;;5124289;27;20214;-80
2022/06/04 02:20:58;;;;;;;8.63;5.63;;;22.60;82.50;;;;;;5122765;27;20215;-80
2022/06/04 02:23:29;;;;;;;7.95;5.28;;;22.50;82.50;;;;;;5121416;27;20200;-80
2022/06/04 02:25:58;;;;;;;7.85;5.00;;;22.50;82.60;;;;;;5130537;27;20386;-79
2022/06/04 02:28:28;;;;;;;8.77;4.35;;;22.50;82.70;;;;;;5123970;27;20191;-79
2022/06/04 02:31:05;;;;;;;7.57;4.75;;;22.50;82.70;;;;;;5117907;27;20335;-79
2022/06/04 02:33:40;;;;;;;8.55;5.32;;;22.50;82.70;;;;;;5122059;27;20191;-78
2022/06/04 02:36:12;;;;;;;7.00;4.05;;;22.40;82.50;;;;;;5120463;27;20187;-79
2022/06/04 02:38:48;;;;;;;9.30;5.15;;;22.50;82.60;;;;;;5121135;27;20188;-81
2022/06/04 02:41:21;;;;;;;7.88;5.07;;;22.40;82.50;;;;;;5123413;27;20180;-81
2022/06/04 02:43:58;;;;;;;10.52;4.97;;;22.40;82.60;;;;;;5123896;27;20196;-81
2022/06/04 02:46:33;;;;;;;8.27;5.03;;;22.40;82.80;;;;;;5120195;27;20192;-79
2022/06/04 02:49:08;;;;;;;10.15;5.72;;;22.40;82.60;;;;;;5125173;27;20184;-80
2022/06/04 02:51:39;;;;;;;9.82;5.88;;;22.40;82.70;;;;;;5117531;27;20238;-79
2022/06/04 02:54:14;;;;;;;11.10;5.18;;;22.40;82.70;;;;;;5120751;27;20696;-80
2022/06/04 02:56:44;;;;;;;7.05;4.93;;;22.30;82.70;;;;;;5124438;27;20184;-80
2022/06/04 02:59:17;;;;;;;11.50;5.50;;;22.30;82.70;;;;;;5124898;27;20189;-80
2022/06/04 03:01:48;;;;;;;7.65;4.70;;;22.30;82.70;;;;;;5124895;27;20188;-79
2022/06/04 03:04:17;;;;;;;13.07;4.78;;;22.30;82.70;;;;;;5125431;27;20193;-79
2022/06/04 03:06:45;;;;;;;7.60;4.82;;;22.30;82.70;;;;;;5116049;27;20204;-79
2022/06/04 03:09:17;;;;;;;8.50;5.05;;;22.30;82.80;;;;;;5116088;27;20830;-79
2022/06/04 03:11:48;;;;;;;8.80;5.00;;;22.30;82.80;;;;;;5119934;27;20211;-79
2022/06/04 03:14:20;;;;;;;7.70;5.10;;;22.30;82.80;;;;;;5117706;27;20199;-79
2022/06/04 03:16:49;;;;;;;7.88;4.60;;;22.20;82.80;;;;;;5117469;27;20741;-79
2022/06/04 03:19:18;;;;;;;8.65;5.57;;;22.30;82.80;;;;;;5129494;27;20195;-80
2022/06/04 03:21:46;;;;;;;12.15;5.47;;;22.30;82.90;;;;;;5123379;27;20233;-79
2022/06/04 03:24:16;;;;;;;9.77;5.13;;;22.30;83.00;;;;;;5123069;27;20281;-79
2022/06/04 03:26:44;;;;;;;11.13;5.57;;;22.30;83.00;;;;;;5127314;27;21081;-79
2022/06/04 03:29:13;;;;;;;9.43;5.28;;;22.30;83.00;;;;;;5121919;27;20199;-80
2022/06/04 03:31:42;;;;;;;10.30;5.00;;;22.30;83.00;;;;;;5127013;27;20223;-77
2022/06/04 03:34:12;;;;;;;10.32;5.88;;;22.30;83.80;;;;;;5125416;27;20642;-78
2022/06/04 03:36:40;;;;;;;13.18;5.28;;;22.30;83.10;;;;;;5127029;27;20187;-79
2022/06/04 03:39:10;;;;;;;7.82;5.32;;;22.30;83.10;;;;;;5127535;27;20188;-78
2022/06/04 03:41:40;;;;;;;9.02;5.25;;;22.30;83.10;;;;;;5127046;27;20596;-79
2022/06/04 03:44:09;;;;;;;11.15;5.63;;;22.30;84.00;;;;;;5122247;27;20279;-78
2022/06/04 03:46:38;;;;;;;13.30;4.93;;;22.30;83.10;;;;;;5118356;27;20188;-79
2022/06/04 03:49:08;;;;;;;8.40;4.50;;;22.40;83.20;;;;;;5116655;27;20231;-78
2022/06/04 03:51:37;;;;;;;8.07;4.75;;;22.40;83.00;;;;;;5121059;27;20704;-78
2022/06/04 03:54:06;;;;;;;6.72;4.60;;;22.40;82.90;;;;;;5128653;27;20192;-79
2022/06/04 03:56:34;;;;;;;9.70;4.85;;;22.40;82.80;;;;;;5127492;27;20192;-80
2022/06/04 03:59:03;;;;;;;8.27;4.75;;;22.50;82.70;;;;;;5125687;27;20192;-79
2022/06/04 04:01:32;;;;;;;6.32;4.05;;;22.50;82.50;;;;;;5127019;27;20200;-79
2022/06/04 04:04:02;;;;;;;8.82;4.32;;;22.50;82.20;;;;;;5131416;27;20195;-79
2022/06/04 04:06:34;;;;;;;8.82;4.60;;;22.60;82.00;;;;;;5129243;27;20200;-79
2022/06/04 04:09:04;;;;;;;9.80;4.10;;;22.60;81.90;;;;;;5126351;27;20185;-79
2022/06/04 04:11:33;;;;;;;5.15;3.15;;;22.60;81.60;;;;;;5124209;27;20307;-79
2022/06/04 04:14:01;;;;;;;10.10;4.00;;;22.70;81.40;;;;;;5133772;27;20184;-79
2022/06/04 04:16:29;;;;;;;5.30;3.55;;;22.70;81.10;;;;;;5123655;27;20693;-79
2022/06/04 04:18:58;;;;;;;7.63;3.70;;;22.80;81.00;;;;;;5123093;27;20923;-79
2022/06/04 04:21:26;;;;;;;8.50;3.08;;;22.80;80.80;;;;;;5085989;27;20567;-78
2022/06/04 04:23:56;;;;;;;6.57;3.25;;;22.90;80.50;;;;;;5124929;27;20195;-79
2022/06/04 04:26:24;;;;;;;4.22;2.78;;;23.00;80.30;;;;;;5124415;27;20195;-79
2022/06/04 04:28:53;;;;;;;5.53;2.95;;;23.00;80.10;;;;;;5130657;27;20199;-77
2022/06/04 04:31:21;;;;;;;5.07;2.47;;;23.10;80.00;;;;;;5122891;27;20850;-78
2022/06/04 04:33:50;;;;;;;5.78;2.60;;;23.10;79.70;;;;;;5128039;27;20195;-80
2022/06/04 04:36:19;;;;;;;3.78;2.67;;;23.20;79.10;;;;;;5125533;27;20193;-76
2022/06/04 04:38:47;;;;;;;4.03;2.67;;;23.30;78.60;;;;;;5125255;27;20192;-79
2022/06/04 04:41:17;;;;;;;3.85;2.65;;;23.30;77.80;;;;;;5126777;27;20572;-79
2022/06/04 04:43:45;;;;;;;5.15;2.40;;;23.40;77.50;;;;;;5126628;27;20224;-79
2022/06/04 04:46:15;;;;;;;4.05;2.35;;;23.50;77.50;;;;;;5122738;27;20717;-78
2022/06/04 04:48:44;;;;;;;8.90;2.60;;;23.50;76.80;;;;;;5126359;27;20721;-78
2022/06/04 04:51:14;;;;;;;5.47;2.38;;;23.60;76.30;;;;;;5127217;27;20255;-79
2022/06/04 04:53:43;;;;;;;2.92;2.20;;;23.60;75.50;;;;;;5133547;27;20198;-79
2022/06/04 04:56:14;;;;;;;5.15;2.30;;;23.70;75.90;;;;;;5127102;27;20188;-77
2022/06/04 04:58:44;;;;;;;3.63;2.25;;;23.80;76.10;;;;;;5128687;27;20188;-79
2022/06/04 05:01:16;;;;;;;4.93;2.53;;;23.80;76.00;;;;;;5127173;27;20219;-77
2022/06/04 05:03:45;;;;;;;3.65;2.42;;;23.90;75.90;;;;;;5131862;27;20264;-78
2022/06/04 05:06:16;;;;;;;4.05;2.10;;;24.00;75.80;;;;;;5121687;27;20196;-79
2022/06/04 05:08:44;;;;;;;4.22;2.42;;;24.10;75.60;;;;;;5125814;27;20184;-78
2022/06/04 05:11:15;;;;;;;9.43;2.97;;;24.10;75.60;;;;;;5121612;27;20764;-78
2022/06/04 05:13:49;;;;;;;3.80;2.35;;;24.20;75.20;;;;;;5124644;27;20196;-78
2022/06/04 05:16:18;;;;;;;3.67;2.30;;;24.30;75.00;;;;;;5129607;27;20288;-78
2022/06/04 05:18:47;;;;;;;4.65;2.38;;;24.30;74.70;;;;;;5130762;27;20200;-78
2022/06/04 05:21:21;;;;;;;7.30;2.67;;;24.40;74.80;;;;;;5126803;27;20188;-77
2022/06/04 05:23:49;;;;;;;5.30;2.33;;;24.50;74.80;;;;;;5121468;27;20208;-78
2022/06/04 05:26:18;;;;;;;5.43;2.65;;;24.50;74.40;;;;;;5128958;27;20219;-78
2022/06/04 05:28:48;;;;;;;5.15;2.80;;;24.60;74.50;;;;;;5127529;27;20198;-80
2022/06/04 05:31:17;;;;;;;4.45;2.63;;;24.70;74.40;;;;;;5123234;27;20212;-79
2022/06/04 05:33:46;;;;;;;4.15;2.35;;;24.80;74.10;;;;;;5121051;27;20188;-77
2022/06/04 05:36:14;;;;;;;7.20;2.60;;;24.80;74.10;;;;;;5126369;27;20196;-78
2022/06/04 05:38:43;;;;;;;3.50;2.13;;;24.90;74.10;;;;;;5119483;27;20188;-76
2022/06/04 05:41:14;;;;;;;3.35;2.65;;;25.00;74.20;;;;;;5130978;27;20192;-78
2022/06/04 05:43:43;;;;;;;4.57;2.67;;;25.00;74.20;;;;;;5124460;27;20579;-76
2022/06/04 05:46:15;;;;;;;4.43;2.88;;;25.10;73.80;;;;;;5119039;27;20878;-77
2022/06/04 05:48:45;;;;;;;4.63;2.65;;;25.10;73.60;;;;;;5124080;27;20955;-79
2022/06/04 05:51:15;;;;;;;3.65;2.80;;;25.20;73.60;;;;;;5120406;27;20275;-78
2022/06/04 05:53:44;;;;;;;7.38;2.78;;;25.30;73.50;;;;;;5125209;27;20188;-79
2022/06/04 05:56:14;;;;;;;5.50;2.70;;;25.40;73.00;;;;;;5128391;27;20188;-78
2022/06/04 05:58:42;;;;;;;4.72;2.75;;;25.40;72.80;;;;;;5118544;27;20192;-77
2022/06/04 06:01:12;;;;;;;5.75;2.83;;;25.50;72.80;;;;;;5127971;27;20220;-77
2022/06/04 06:03:41;;;;;;;10.68;2.95;;;25.60;72.80;;;;;;5131856;27;20282;-77
2022/06/04 06:06:13;;;;;;;4.07;2.60;;;25.60;72.70;;;;;;5134962;27;20307;-78
2022/06/04 06:08:59;;;;;;;4.32;2.75;;;25.70;72.20;;;;;;5126589;27;20188;-80
2022/06/04 06:11:27;;;;;;;5.75;2.80;;;25.80;72.50;;;;;;5130312;27;20193;-78
2022/06/04 06:13:55;;;;;;;4.15;2.55;;;25.80;72.40;;;;;;5121262;27;20180;-78
2022/06/04 06:16:27;;;;;;;5.18;2.95;;;25.90;72.50;;;;;;5130009;27;20211;-80
2022/06/04 06:18:56;;;;;;;8.45;3.03;;;25.90;72.20;;;;;;5130927;27;20550;-78
2022/06/04 06:21:26;;;;;;;11.60;3.42;;;26.00;72.20;;;;;;5128321;27;20191;-80
2022/06/04 06:23:55;;;;;;;6.57;2.90;;;26.10;72.20;;;;;;5132557;27;20198;-79
2022/06/04 06:26:25;;;;;;;4.93;3.17;;;26.20;72.00;;;;;;5128550;27;20195;-80
2022/06/04 06:28:55;;;;;;;9.38;2.90;;;26.20;71.70;;;;;;5122294;27;20181;-81
2022/06/04 06:31:27;;;;;;;7.15;3.33;;;26.30;71.60;;;;;;5124094;27;20201;-78
2022/06/04 06:33:56;;;;;;;7.38;3.30;;;26.40;71.60;;;;;;5126736;27;20336;-79
2022/06/04 06:36:25;;;;;;;7.82;3.20;;;26.40;71.30;;;;;;5121388;27;20669;-78
2022/06/04 06:38:54;;;;;;;7.75;3.80;;;26.50;71.20;;;;;;5120419;27;20198;-79
2022/06/04 06:41:25;;;;;;;10.77;3.28;;;26.60;71.30;;;;;;5126919;27;20208;-81
2022/06/04 06:43:55;;;;;;;7.00;3.60;;;26.70;71.30;;;;;;5123605;27;20188;-77
2022/06/04 06:46:26;;;;;;;5.38;3.17;;;26.70;71.40;;;;;;5119277;27;20188;-79
2022/06/04 06:48:59;;;;;;;6.50;3.65;;;26.80;71.30;;;;;;5125204;27;20180;-78
2022/06/04 06:51:31;;;;;;;6.22;4.07;;;26.80;71.40;;;;;;5134930;27;20727;-79
2022/06/04 06:54:00;;;;;;;6.65;3.65;;;26.90;71.30;;;;;;5119651;27;20188;-78
2022/06/04 06:56:30;;;;;;;7.22;3.60;;;26.90;71.20;;;;;;5125519;27;20204;-78
2022/06/04 06:59:00;;;;;;;10.85;3.42;;;26.90;71.30;;;;;;5127537;27;20184;-79
2022/06/04 07:01:31;;;;;;;5.35;3.40;;;27.00;71.30;;;;;;5122855;27;20199;-77
2022/06/04 07:04:01;;;;;;;4.38;2.95;;;27.00;71.10;;;;;;5116834;27;20192;-78
2022/06/04 07:06:33;;;;;;;5.38;3.67;;;27.10;71.30;;;;;;5119196;27;20626;-79
2022/06/04 07:09:04;;;;;;;6.30;4.20;;;27.20;71.40;;;;;;5131191;27;20195;-80
2022/06/04 07:11:33;;;;;;;5.47;3.58;;;27.20;70.80;;;;;;5118963;27;20200;-80
2022/06/04 07:14:02;;;;;;;5.68;3.72;;;27.30;71.00;;;;;;5121097;27;20216;-79
2022/06/04 07:16:32;;;;;;;6.47;3.35;;;27.30;71.60;;;;;;5115846;27;20234;-80
2022/06/04 07:19:01;;;;;;;7.18;3.97;;;27.40;71.20;;;;;;5124424;27;20882;-80
2022/06/04 07:21:30;;;;;;;6.10;3.70;;;27.40;71.10;;;;;;5125918;27;21083;-85
2022/06/04 07:23:59;;;;;;;4.88;3.60;;;27.50;71.00;;;;;;5124481;27;20191;-82
2022/06/04 07:26:28;;;;;;;6.78;3.90;;;27.60;71.00;;;;;;5120342;27;21087;-80
2022/06/04 07:28:57;;;;;;;11.07;4.13;;;27.60;70.90;;;;;;5123286;27;20184;-83
2022/06/04 07:31:25;;;;;;;7.72;3.63;;;27.60;70.30;;;;;;5123784;27;20196;-82
2022/06/04 07:33:56;;;;;;;6.10;4.05;;;27.60;70.40;;;;;;5128780;27;20273;-87
2022/06/04 07:36:27;;;;;;;7.80;3.72;;;27.60;70.30;;;;;;5129458;27;20196;-81
2022/06/04 07:38:56;;;;;;;7.20;3.95;;;27.60;69.80;;;;;;5124537;27;20184;-82
2022/06/04 07:41:28;;;;;;;5.28;3.92;;;27.70;69.90;;;;;;5132136;27;20189;-79
2022/06/04 07:43:57;;;;;;;5.70;3.53;;;27.70;69.90;;;;;;5125414;27;20817;-79
2022/06/04 07:46:27;;;;;;;6.28;3.90;;;27.70;70.00;;;;;;5127176;27;20300;-79
2022/06/04 07:48:57;;;;;;;5.72;3.88;;;27.80;70.00;;;;;;5132654;27;20192;-77
2022/06/04 07:51:27;;;;;;;6.20;4.38;;;27.80;70.10;;;;;;5127366;27;20189;-78
2022/06/04 07:53:56;;;;;;;5.80;3.85;;;27.90;70.10;;;;;;5126227;27;20872;-78
2022/06/04 07:56:24;;;;;;;8.27;4.03;;;27.90;69.90;;;;;;5125337;27;20192;-78
2022/06/04 07:58:53;;;;;;;7.13;3.22;;;27.90;69.70;;;;;;5128065;27;20191;-80
2022/06/04 08:01:23;;;;;;;5.15;3.85;;;27.90;69.60;;;;;;5129133;27;20192;-80
2022/06/04 08:03:53;;;;;;;6.38;3.80;;;28.00;69.80;;;;;;5132210;27;20291;-78
2022/06/04 08:06:24;;;;;;;5.75;4.28;;;28.00;69.80;;;;;;5122751;27;20188;-80
2022/06/04 08:08:55;;;;;;;8.77;4.40;;;28.00;69.80;;;;;;5126832;27;20435;-80
2022/06/04 08:11:35;;;;;;;7.85;4.28;;;28.10;69.50;;;;;;5125219;27;20185;-78
2022/06/04 08:14:13;;;;;;;5.85;3.85;;;28.10;69.60;;;;;;5136242;27;20635;-81
2022/06/04 08:16:46;;;;;;;7.32;4.75;;;28.10;69.70;;;;;;5090865;28;20239;-80
2022/06/04 08:19:16;;;;;;;5.30;3.50;;;28.20;69.60;;;;;;5085837;28;20193;-79
2022/06/04 08:21:46;;;;;;;6.47;4.28;;;28.20;69.60;;;;;;5081163;28;20209;-81
2022/06/04 08:24:18;;;;;;;7.38;4.28;;;28.20;69.80;;;;;;5082915;28;20185;-81
2022/06/04 08:26:53;;;;;;;5.85;3.88;;;28.30;69.60;;;;;;5086593;28;20207;-80
2022/06/04 08:29:22;;;;;;;6.78;3.75;;;28.30;68.90;;;;;;5083317;28;20192;-78
2022/06/04 08:31:51;;;;;;;10.55;5.10;;;28.40;68.70;;;;;;5086891;28;20936;-78
2022/06/04 08:34:19;;;;;;;6.65;4.00;;;28.40;68.80;;;;;;5085975;28;20209;-80
2022/06/04 08:36:49;;;;;;;8.02;4.82;;;28.40;68.90;;;;;;5085229;28;20530;-79
2022/06/04 08:39:18;;;;;;;10.63;3.90;;;28.40;68.50;;;;;;5087717;28;20186;-82
2022/06/04 08:42:03;;;;;;;8.23;4.50;;;28.50;68.60;;;;;;5084659;28;20217;-78
2022/06/04 08:44:34;;;;;;;10.35;4.15;;;28.50;68.10;;;;;;5087076;28;20193;-79
2022/06/04 08:47:15;;;;;;;12.65;4.30;;;28.50;67.90;;;;;;5090355;28;20615;-80
2022/06/04 08:49:48;;;;;;;5.65;3.65;;;28.60;67.80;;;;;;5082357;28;20193;-80
2022/06/04 08:52:30;;;;;;;10.38;4.38;;;28.50;67.80;;;;;;5087405;28;20553;-82
2022/06/04 08:58:04;;;;;;;11.45;4.40;;;28.60;67.60;;;;;;5091557;28;20193;-84
2022/06/04 09:00:56;;;;;;;7.68;4.30;;;28.60;67.70;;;;;;5087693;28;20213;-82
2022/06/04 09:03:32;;;;;;;6.05;4.32;;;28.70;67.40;;;;;;5088254;28;20705;-82
2022/06/04 09:06:23;;;;;;;6.50;3.97;;;28.70;67.60;;;;;;5075264;28;20198;-79
2022/06/04 09:09:00;;;;;;;6.72;4.25;;;28.80;67.70;;;;;;5090884;28;20197;-79
2022/06/04 09:11:44;;;;;;;8.30;4.45;;;28.80;67.70;;;;;;5091218;28;20202;-81
2022/06/04 09:14:31;;;;;;;5.82;3.75;;;28.80;68.10;;;;;;5088293;28;20221;-79
2022/06/04 09:17:03;;;;;;;11.50;4.60;;;28.90;67.20;;;;;;5094861;27;20188;-80
2022/06/04 09:19:36;;;;;;;6.45;4.05;;;28.90;67.30;;;;;;5091122;28;20247;-79
2022/06/04 09:22:18;;;;;;;5.65;4.18;;;29.00;67.30;;;;;;5092591;28;20228;-80
2022/06/04 09:24:48;;;;;;;7.13;4.07;;;29.10;66.90;;;;;;5088094;28;20204;-81
2022/06/04 09:27:29;;;;;;;5.43;3.72;;;29.10;66.60;;;;;;5092225;28;20197;-79
2022/06/04 09:30:14;;;;;;;5.32;3.83;;;29.20;66.40;;;;;;5090956;28;20194;-80
2022/06/04 09:32:57;;;;;;;6.10;3.60;;;29.30;66.40;;;;;;5094274;28;20228;-82
2022/06/04 09:35:32;;;;;;;5.75;3.72;;;29.30;65.80;;;;;;5080845;28;20203;-81
2022/06/04 09:38:01;;;;;;;5.73;3.83;;;29.40;65.90;;;;;;5089165;28;20424;-80
2022/06/04 09:40:33;;;;;;;6.22;3.72;;;29.50;65.70;;;;;;5087854;28;20286;-81
2022/06/04 09:43:06;;;;;;;6.22;3.53;;;29.60;65.40;;;;;;5092532;28;20227;-82
2022/06/04 09:45:58;;;;;;;7.13;3.67;;;29.50;64.90;;;;;;5092003;28;20670;-80
2022/06/04 09:48:30;;;;;;;6.32;3.38;;;29.60;65.00;;;;;;5092757;28;20213;-82
2022/06/04 09:51:02;;;;;;;5.60;3.83;;;29.70;64.80;;;;;;5091975;28;20198;-80
2022/06/04 09:53:33;;;;;;;8.15;3.40;;;29.80;64.20;;;;;;5088892;28;20210;-81
2022/06/04 09:56:10;;;;;;;8.48;4.28;;;29.80;64.10;;;;;;5092646;28;20205;-81
2022/06/04 09:58:41;;;;;;;5.95;3.90;;;29.80;64.10;;;;;;5092550;28;20195;-81
2022/06/04 10:01:23;;;;;;;6.22;3.78;;;29.80;64.30;;;;;;5087568;28;20217;-82
2022/06/04 10:04:00;;;;;;;9.52;4.28;;;29.90;64.30;;;;;;5088861;28;20200;-80
2022/06/04 10:06:32;;;;;;;6.05;4.03;;;29.90;64.60;;;;;;5090567;28;20193;-81
2022/06/04 10:12:03;;;;;;;5.38;4.15;;;29.90;64.10;;;;;;5093355;28;20258;-81
2022/06/04 10:14:33;;;;;;;11.27;4.55;;;30.00;64.30;;;;;;5096026;27;20213;-81
2022/06/04 10:17:02;;;;;;;11.00;7.28;;;30.00;64.70;;;;;;5132102;27;20188;-80
2022/06/04 10:19:33;;;;;;;6.28;4.20;;;29.90;64.40;;;;;;5131652;27;20188;-80
2022/06/04 10:22:11;;;;;;;8.35;4.15;;;30.00;64.10;;;;;;5135221;27;20514;-79
2022/06/04 10:24:50;;;;;;;8.15;5.53;;;30.10;63.80;;;;;;5128356;27;20184;-81
2022/06/04 10:27:35;;;;;;;12.95;4.50;;;30.00;63.80;;;;;;5089828;28;20197;-81
2022/06/04 10:30:14;;;;;;;6.28;4.15;;;30.10;63.80;;;;;;5086900;28;20209;-82
2022/06/04 10:32:59;;;;;;;5.43;4.20;;;30.10;63.80;;;;;;5075977;28;20201;-81
2022/06/04 10:35:57;;;;;;;6.50;4.20;;;30.20;63.30;;;;;;5085140;28;20217;-81
2022/06/04 10:38:29;;;;;;;6.45;4.35;;;30.20;62.60;;;;;;5077053;28;20201;-79
2022/06/04 10:41:08;;;;;;;6.90;5.13;;;30.20;62.50;;;;;;5080255;28;20182;-80
2022/06/04 10:44:16;;;;;;;7.70;4.28;;;30.20;62.50;;;;;;5084231;28;20250;-81
2022/06/04 10:46:56;;;;;;;11.48;4.55;;;30.20;62.90;;;;;;5132323;27;21002;-80
2022/06/04 10:50:03;;;;;;;8.05;5.95;;;30.20;63.10;;;;;;5135237;27;20198;-79
2022/06/04 10:52:40;;;;;;;8.57;5.40;;;30.20;63.30;;;;;;5129833;27;20269;-83
2022/06/04 10:55:26;;;;;;;6.38;4.43;;;30.20;63.50;;;;;;5133411;27;20258;-81
2022/06/04 10:58:18;;;;;;;8.60;4.10;;;30.20;63.00;;;;;;5131916;27;20199;-80
2022/06/04 11:00:52;;;;;;;9.13;4.68;;;30.10;62.80;;;;;;5125220;27;20200;-80
2022/06/04 11:03:26;;;;;;;6.50;4.40;;;30.10;62.90;;;;;;5125365;27;20187;-81
2022/06/04 11:05:58;;;;;;;7.75;4.30;;;30.20;63.00;;;;;;5122753;27;20188;-79
2022/06/04 11:08:32;;;;;;;7.05;4.10;;;30.20;62.50;;;;;;5128523;27;20184;-79
2022/06/04 11:11:05;;;;;;;5.10;3.88;;;30.30;62.70;;;;;;5134251;27;20561;-81
2022/06/04 11:13:40;;;;;;;5.95;3.35;;;30.30;62.70;;;;;;5137630;27;20207;-82
2022/06/04 11:16:18;;;;;;;6.03;3.80;;;30.40;62.70;;;;;;5134724;27;20223;-81
2022/06/04 11:18:50;;;;;;;6.32;4.47;;;30.30;62.30;;;;;;5137731;27;20228;-81
2022/06/04 11:21:24;;;;;;;6.80;4.15;;;30.30;61.70;;;;;;5133958;27;20667;-80
2022/06/04 11:23:59;;;;;;;8.13;4.15;;;30.20;62.00;;;;;;5135488;27;20191;-81
2022/06/04 11:26:35;;;;;;;7.30;4.05;;;30.20;62.10;;;;;;5136454;27;20191;-80
2022/06/04 11:29:05;;;;;;;6.68;4.00;;;30.20;62.20;;;;;;5138460;27;20199;-81
2022/06/04 11:31:54;;;;;;;6.57;4.10;;;30.20;62.40;;;;;;5134692;27;20208;-81
2022/06/04 11:35:03;;;;;;;6.05;4.25;;;30.10;62.30;;;;;;5134076;27;20272;-79
2022/06/04 11:37:47;;;;;;;8.27;4.35;;;30.10;61.60;;;;;;5101915;27;20395;-80
2022/06/04 11:40:27;;;;;;;5.80;4.53;;;30.10;61.80;;;;;;5125612;27;20184;-78
2022/06/04 11:42:58;;;;;;;7.28;4.40;;;30.10;62.10;;;;;;5124997;27;20192;-80
2022/06/04 11:45:45;;;;;;;6.80;4.70;;;30.20;62.40;;;;;;5133903;27;20192;-81
2022/06/04 11:48:31;;;;;;;6.95;4.30;;;30.30;62.50;;;;;;5131229;27;20188;-80
2022/06/04 11:51:11;;;;;;;8.32;4.60;;;30.40;62.00;;;;;;5133394;27;20207;-80
2022/06/04 11:53:46;;;;;;;8.90;4.82;;;30.60;61.60;;;;;;5132212;27;20188;-79
2022/06/04 11:56:21;;;;;;;8.05;4.32;;;30.70;61.70;;;;;;5138465;27;20218;-80
2022/06/04 11:59:12;;;;;;;5.70;4.22;;;30.80;61.30;;;;;;5126843;27;20825;-79
2022/06/04 12:01:44;;;;;;;7.53;4.00;;;30.90;61.20;;;;;;5124208;27;20192;-78
2022/06/04 12:04:21;;;;;;;9.27;4.15;;;31.00;61.40;;;;;;5130951;27;20318;-79
2022/06/04 12:07:01;;;;;;;5.75;4.30;;;31.10;61.50;;;;;;5124241;27;20234;-81
2022/06/04 12:09:39;;;;;;;7.35;3.88;;;31.20;60.70;;;;;;5122340;27;20181;-79
2022/06/04 12:12:13;;;;;;;6.15;4.20;;;31.30;60.80;;;;;;5128814;27;20739;-80
2022/06/04 12:14:48;;;;;;;8.98;5.03;;;31.40;61.40;;;;;;5125954;27;20228;-82
2022/06/04 12:17:21;;;;;;;11.48;5.32;;;31.60;60.00;;;;;;5131307;27;20191;-77
2022/06/04 12:25:42;;;;;;;5.88;3.60;;;32.00;59.20;;;;;;5123986;27;20224;-81
2022/06/04 12:28:26;;;;;;;5.25;3.58;;;32.10;58.30;;;;;;5126387;27;20194;-82
2022/06/04 12:31:00;;;;;;;5.55;3.67;;;32.10;57.80;;;;;;5122373;27;20192;-81
2022/06/04 12:33:36;;;;;;;4.55;3.78;;;32.30;58.10;;;;;;5119424;27;20193;-81
2022/06/04 12:36:12;;;;;;;5.63;4.47;;;32.40;58.00;;;;;;5134258;27;20215;-85
2022/06/04 12:38:42;;;;;;;7.85;4.05;;;32.50;57.60;;;;;;5123085;27;20670;-84
2022/06/04 12:41:20;;;;;;;6.05;4.00;;;32.60;57.60;;;;;;5134339;27;20195;-81
2022/06/04 12:43:57;;;;;;;5.15;4.05;;;32.70;57.40;;;;;;5132526;27;20189;-79
2022/06/04 12:46:33;;;;;;;7.68;4.53;;;32.80;57.20;;;;;;5125626;27;20180;-81
2022/06/04 12:49:20;;;;;;;7.47;4.50;;;32.70;57.00;;;;;;5124770;27;20193;-82
2022/06/04 12:51:56;;;;;;;7.30;5.15;;;32.70;56.40;;;;;;5123134;27;20801;-83
2022/06/04 12:54:49;;;;;;;9.05;4.90;;;32.70;56.40;;;;;;5131020;27;20192;-83
2022/06/04 12:57:45;;;;;;;6.85;5.05;;;32.70;56.30;;;;;;5130419;27;20756;-83
2022/06/04 13:00:27;;;;;;;6.57;4.93;;;32.80;55.70;;;;;;5119729;27;20264;-82
2022/06/04 13:03:00;;;;;;;5.45;4.25;;;32.90;55.60;;;;;;5135097;27;20708;-82
2022/06/04 13:05:29;;;;;;;5.38;4.22;;;33.00;55.90;;;;;;5132677;27;20286;-83
2022/06/04 13:08:11;;;;;;;7.75;3.88;;;33.10;55.50;;;;;;5131701;27;20188;-84
2022/06/04 13:10:59;;;;;;;7.35;4.18;;;33.20;55.50;;;;;;5119757;27;20200;-84
2022/06/04 13:14:14;;;;;;;7.57;4.97;;;33.40;55.40;;;;;;5130567;27;20306;-85
2022/06/04 13:17:17;;;;;;;7.90;4.60;;;33.70;55.20;;;;;;5107481;27;20215;-85
2022/06/04 13:20:26;;;;;;;5.25;3.95;;;34.00;54.30;;;;;;5120874;27;20196;-86
2022/06/04 13:23:45;;;;;;;6.72;4.20;;;34.20;53.90;;;;;;5105387;27;20196;-86
2022/06/04 13:26:33;;;;;;;6.10;3.88;;;34.40;53.60;;;;;;5134307;27;20200;-83
2022/06/04 13:29:03;;;;;;;7.05;4.43;;;34.20;52.90;;;;;;5123854;27;20188;-84
2022/06/04 13:31:34;;;;;;;7.57;4.18;;;34.10;52.70;;;;;;5129287;27;20197;-81
2022/06/04 13:34:17;;;;;;;6.75;4.80;;;34.00;52.90;;;;;;5130204;27;20908;-83
2022/06/04 13:36:48;;;;;;;8.45;4.25;;;33.80;53.70;;;;;;5127365;27;20207;-82
2022/06/04 13:39:22;;;;;;;5.82;4.22;;;33.60;53.60;;;;;;5115212;27;20216;-83
2022/06/04 13:42:05;;;;;;;5.57;4.40;;;33.50;53.60;;;;;;5127119;27;20196;-82